Time;durP1;ratioP1;P1;durP2;ratioP2;P2;SDS_P1;SDS_P2;PMS_P1;PMS_P2;Temp;Humidity;BMP_temperature;BMP_pressure;BME280_temperature;BME280_humidity;BME280_pressure;Samples;Min_cycle;Max_cycle;Signal;HPM_P1;HPM_P2
2022/04/10 00:01:21;;;;;;;0.50;0.50;;;;;;;6.30;81.06;97846.63;4822665;29;20134;-83
2022/04/10 00:03:48;;;;;;;0.60;0.60;;;;;;;6.34;81.13;97855.81;4823775;29;20057;-83
2022/04/10 00:06:16;;;;;;;0.60;0.60;;;;;;;6.31;81.29;97840.22;4822346;29;20058;-82
2022/04/10 00:08:42;;;;;;;0.50;0.50;;;;;;;6.30;81.28;97849.28;4824264;29;20055;-83
2022/04/10 00:11:10;;;;;;;0.50;0.50;;;;;;;6.20;81.58;97844.63;4824218;29;20487;-83
2022/04/10 00:13:38;;;;;;;0.50;0.50;;;;;;;6.23;81.87;97838.75;4829189;29;20095;-82
2022/04/10 00:16:07;;;;;;;0.60;0.60;;;;;;;6.23;81.75;97840.63;4830490;29;20149;-83
2022/04/10 00:18:37;;;;;;;0.50;0.50;;;;;;;6.25;81.97;97835.81;4824678;29;20110;-83
2022/04/10 00:21:05;;;;;;;0.50;0.50;;;;;;;6.21;81.87;97837.38;4823524;29;20089;-83
2022/04/10 00:23:32;;;;;;;0.55;0.55;;;;;;;6.22;82.03;97839.81;4823430;29;20518;-84
2022/04/10 00:25:59;;;;;;;0.60;0.60;;;;;;;6.22;82.13;97837.13;4805897;29;20154;-83
2022/04/10 00:28:27;;;;;;;0.50;0.50;;;;;;;6.19;82.01;97824.22;4821776;29;20503;-83
2022/04/10 00:30:54;;;;;;;0.52;0.52;;;;;;;6.22;81.96;97810.34;4823082;29;20550;-83
2022/04/10 00:33:22;;;;;;;0.60;0.60;;;;;;;6.21;82.13;97829.34;4822753;29;20590;-83
2022/04/10 00:35:49;;;;;;;0.60;0.60;;;;;;;6.17;82.25;97826.34;4823750;29;20115;-82
2022/04/10 00:38:16;;;;;;;0.60;0.60;;;;;;;6.16;82.45;97821.25;4804210;29;20058;-83
2022/04/10 00:40:43;;;;;;;0.50;0.50;;;;;;;6.15;82.56;97820.41;4805152;29;20063;-83
2022/04/10 00:43:10;;;;;;;0.50;0.50;;;;;;;6.13;82.68;97817.19;4805264;29;20051;-82
2022/04/10 00:45:38;;;;;;;0.60;0.60;;;;;;;6.10;83.30;97816.84;4805463;29;20145;-82
2022/04/10 00:48:05;;;;;;;0.60;0.60;;;;;;;6.07;83.51;97813.59;4788079;29;20083;-83
2022/04/10 00:50:33;;;;;;;0.50;0.50;;;;;;;6.03;83.81;97800.94;4805895;29;20510;-83
2022/04/10 00:53:00;;;;;;;0.50;0.50;;;;;;;6.01;84.35;97808.41;4806761;29;20090;-84
2022/04/10 00:55:27;;;;;;;0.50;0.50;;;;;;;6.00;84.86;97806.78;4804040;29;20494;-83
2022/04/10 00:58:00;;;;;;;0.60;0.60;;;;;;;5.99;85.18;97811.31;4804372;29;20059;-83
2022/04/10 01:00:27;;;;;;;0.60;0.60;;;;;;;5.98;85.39;97812.38;4804904;29;20498;-83
2022/04/10 01:02:54;;;;;;;0.60;0.60;;;;;;;6.02;85.46;97816.19;4803805;29;20047;-83
2022/04/10 01:05:22;;;;;;;0.60;0.60;;;;;;;6.05;85.50;97807.69;4803855;29;20058;-83
2022/04/10 01:07:49;;;;;;;0.60;0.60;;;;;;;6.03;85.69;97809.78;4807172;29;20051;-83
2022/04/10 01:10:17;;;;;;;0.60;0.60;;;;;;;6.01;85.83;97813.78;4809091;29;20107;-83
2022/04/10 01:12:44;;;;;;;0.60;0.60;;;;;;;6.00;86.08;97812.13;4809221;29;20496;-84
2022/04/10 01:15:18;;;;;;;;;;;;;;;5.92;86.41;97818.66;4805273;29;20051;-83
2022/04/10 01:17:48;;;;;;;0.60;0.60;;;;;;;5.86;86.71;97825.81;4802852;29;19936;-82
2022/04/10 01:20:15;;;;;;;0.57;0.57;;;;;;;5.84;86.95;97821.75;4788495;29;20431;-84
2022/04/10 01:22:46;;;;;;;0.60;0.60;;;;;;;5.88;87.31;97814.06;4804015;29;20078;-82
2022/04/10 01:25:13;;;;;;;0.50;0.50;;;;;;;5.86;87.51;97811.63;4808387;29;20078;-84
2022/04/10 01:27:44;;;;;;;0.50;0.50;;;;;;;5.85;87.68;97805.47;4807053;29;20124;-83
2022/04/10 01:30:14;;;;;;;0.60;0.60;;;;;;;5.84;87.76;97808.38;4807466;29;20082;-83
2022/04/10 01:32:44;;;;;;;0.60;0.60;;;;;;;5.88;87.99;97793.44;4807297;29;20079;-84
2022/04/10 01:35:12;;;;;;;0.50;0.50;;;;;;;5.85;88.02;97800.09;4807487;29;20054;-86
2022/04/10 01:37:39;;;;;;;0.50;0.50;;;;;;;5.85;88.26;97799.31;4808283;29;20061;-84
2022/04/10 01:40:11;;;;;;;0.50;0.50;;;;;;;5.81;88.60;97792.81;4805889;29;20051;-82
2022/04/10 01:42:39;;;;;;;0.50;0.50;;;;;;;5.82;88.75;97784.53;4806292;29;20047;-82
2022/04/10 01:45:07;;;;;;;0.50;0.50;;;;;;;5.82;88.89;97795.25;4805786;29;20447;-83
2022/04/10 01:47:35;;;;;;;0.55;0.55;;;;;;;5.84;88.73;97777.03;4806684;29;20274;-82
2022/04/10 01:50:03;;;;;;;0.60;0.60;;;;;;;5.84;88.98;97776.25;4806237;29;20050;-83
2022/04/10 01:52:30;;;;;;;0.50;0.50;;;;;;;5.84;88.99;97781.59;4803887;29;20047;-82
2022/04/10 01:54:57;;;;;;;0.50;0.50;;;;;;;5.85;89.05;97777.88;4805384;29;20277;-83
2022/04/10 01:57:26;;;;;;;0.60;0.60;;;;;;;5.88;89.07;97779.25;4805420;29;20059;-82
2022/04/10 01:59:54;;;;;;;0.50;0.50;;;;;;;5.92;89.14;97786.53;4805751;29;20059;-84
2022/04/10 02:02:23;;;;;;;0.60;0.60;;;;;;;5.93;88.96;97777.47;4805908;29;20080;-83
2022/04/10 02:04:53;;;;;;;0.50;0.50;;;;;;;5.93;89.24;97779.34;4805147;29;20055;-83
2022/04/10 02:07:20;;;;;;;0.50;0.50;;;;;;;5.94;89.35;97776.44;4806992;29;20074;-83
2022/04/10 02:09:49;;;;;;;0.60;0.60;;;;;;;5.97;89.41;97789.31;4823923;29;20120;-83
2022/04/10 02:12:16;;;;;;;0.50;0.50;;;;;;;5.99;89.41;97773.81;4823850;29;20054;-83
2022/04/10 02:14:43;;;;;;;0.50;0.50;;;;;;;6.02;89.60;97773.34;4825553;29;20161;-84
2022/04/10 02:17:11;;;;;;;0.50;0.50;;;;;;;6.05;89.58;97764.00;4823649;29;20537;-84
2022/04/10 02:19:38;;;;;;;0.50;0.50;;;;;;;6.04;89.62;97771.22;4824468;29;20058;-83
2022/04/10 02:22:05;;;;;;;0.60;0.60;;;;;;;6.04;89.81;97776.59;4830487;29;20084;-84
2022/04/10 02:24:32;;;;;;;0.60;0.60;;;;;;;6.03;89.91;97761.59;4831039;29;20062;-83
2022/04/10 02:26:59;;;;;;;0.60;0.60;;;;;;;6.06;90.01;97779.03;4829103;29;20115;-82
2022/04/10 02:29:26;;;;;;;0.60;0.60;;;;;;;6.06;90.26;97771.81;4830244;29;20057;-82
2022/04/10 02:31:54;;;;;;;0.50;0.50;;;;;;;6.05;90.36;97777.38;4818878;29;20088;-83
2022/04/10 02:34:21;;;;;;;0.60;0.60;;;;;;;6.04;90.46;97760.50;4810708;29;20059;-82
2022/04/10 02:36:50;;;;;;;0.60;0.60;;;;;;;6.05;90.39;97761.31;4827112;29;20058;-84
2022/04/10 02:39:18;;;;;;;0.50;0.50;;;;;;;6.05;90.53;97759.47;4827558;29;20054;-82
2022/04/10 02:41:45;;;;;;;0.50;0.50;;;;;;;6.05;90.58;97774.72;4825113;29;20157;-82
2022/04/10 02:44:12;;;;;;;0.60;0.60;;;;;;;6.07;90.69;97772.59;4824420;29;20058;-82
2022/04/10 02:46:40;;;;;;;0.60;0.60;;;;;;;6.06;90.79;97762.97;4823708;29;20058;-83
2022/04/10 02:49:07;;;;;;;0.60;0.60;;;;;;;6.02;90.92;97770.66;4823711;29;20050;-83
2022/04/10 02:51:34;;;;;;;0.60;0.60;;;;;;;6.02;91.27;97767.97;4824922;29;20054;-82
2022/04/10 02:54:01;;;;;;;0.50;0.50;;;;;;;6.02;91.31;97767.16;4819234;29;20061;-82
2022/04/10 02:56:48;;;;;;;0.60;0.60;;;;;;;6.05;91.33;97777.38;4819949;29;20078;-84
2022/04/10 02:59:34;;;;;;;0.50;0.50;;;;;;;6.04;91.32;97773.91;4806229;29;20211;-84
2022/04/10 03:02:20;;;;;;;0.60;0.60;;;;;;;6.03;91.34;97785.69;4806761;29;20057;-83
2022/04/10 03:05:07;;;;;;;0.55;0.55;;;;;;;6.05;91.54;97788.94;4806731;29;20091;-79
2022/04/10 03:07:53;;;;;;;0.50;0.50;;;;;;;6.04;91.41;97792.66;4806605;29;20062;-82
2022/04/10 03:10:39;;;;;;;0.60;0.60;;;;;;;6.06;91.63;97793.22;4806022;29;20423;-82
2022/04/10 03:13:25;;;;;;;0.50;0.50;;;;;;;6.08;91.47;97796.47;4807353;29;20150;-82
2022/04/10 03:16:13;;;;;;;0.52;0.52;;;;;;;6.03;91.56;97785.69;4805160;29;20062;-82
2022/04/10 03:18:59;;;;;;;0.50;0.50;;;;;;;6.02;91.96;97786.72;4805872;29;20065;-80
2022/04/10 03:21:45;;;;;;;0.60;0.60;;;;;;;6.01;92.33;97787.00;4804763;29;20166;-81
2022/04/10 03:24:31;;;;;;;0.60;0.60;;;;;;;6.00;92.61;97791.53;4805692;29;20057;-79
2022/04/10 03:27:17;;;;;;;0.50;0.50;;;;;;;6.01;92.56;97774.41;4805126;29;20084;-81
2022/04/10 03:30:04;;;;;;;0.52;0.52;;;;;;;6.01;92.75;97774.41;4804696;29;20068;-81
2022/04/10 03:32:51;;;;;;;0.50;0.50;;;;;;;5.99;92.93;97771.16;4792106;29;20500;-82
2022/04/10 03:35:37;;;;;;;0.57;0.57;;;;;;;6.00;93.24;97769.28;4804674;29;20057;-81
2022/04/10 03:38:26;;;;;;;0.50;0.50;;;;;;;5.97;93.23;97770.56;4804272;29;20107;-81
2022/04/10 03:41:12;;;;;;;0.50;0.50;;;;;;;5.98;93.43;97777.56;4804283;29;20058;-80
2022/04/10 03:43:58;;;;;;;0.60;0.60;;;;;;;6.00;93.62;97785.34;4804384;29;20208;-80
2022/04/10 03:46:44;;;;;;;0.60;0.60;;;;;;;6.03;93.61;97783.00;4802895;29;20086;-82
2022/04/10 03:49:31;;;;;;;0.60;0.60;;;;;;;6.05;93.49;97788.09;4803611;29;20185;-82
2022/04/10 03:52:17;;;;;;;0.50;0.50;;;;;;;6.05;93.57;97785.44;4803942;29;20057;-81
2022/04/10 03:55:04;;;;;;;0.60;0.60;;;;;;;6.08;93.42;97799.16;4803659;29;20107;-82
2022/04/10 03:57:50;;;;;;;0.60;0.60;;;;;;;6.07;93.31;97796.72;4803596;29;20061;-83
2022/04/10 04:00:36;;;;;;;0.60;0.60;;;;;;;6.06;93.18;97795.09;4805047;29;20537;-82
2022/04/10 04:03:27;;;;;;;0.50;0.50;;;;;;;6.10;93.10;97800.78;4803785;29;20150;-82
2022/04/10 04:06:13;;;;;;;0.50;0.50;;;;;;;6.11;93.02;97813.94;4803200;29;20061;-83
2022/04/10 04:08:59;;;;;;;0.60;0.60;;;;;;;6.08;93.03;97820.59;4812548;29;20426;-84
2022/04/10 04:11:45;;;;;;;0.60;0.60;;;;;;;6.11;93.03;97815.81;4820589;29;20065;-83
2022/04/10 04:14:31;;;;;;;0.60;0.60;;;;;;;6.08;93.22;97823.25;4816546;29;20066;-82
2022/04/10 04:17:17;;;;;;;0.50;0.50;;;;;;;6.12;93.16;97828.13;4804492;29;20058;-83
2022/04/10 04:20:05;;;;;;;0.57;0.57;;;;;;;6.12;92.96;97825.44;4804082;29;20066;-83
2022/04/10 04:22:51;;;;;;;0.50;0.50;;;;;;;6.14;92.95;97831.38;4804115;29;20582;-82
2022/04/10 04:25:38;;;;;;;0.60;0.60;;;;;;;6.13;93.10;97829.75;4805056;29;20054;-82
2022/04/10 04:28:25;;;;;;;0.50;0.50;;;;;;;6.15;93.14;97823.06;4803556;29;20146;-82
2022/04/10 04:31:12;;;;;;;0.60;0.60;;;;;;;6.13;93.07;97821.69;4803841;29;20058;-82
2022/04/10 04:33:58;;;;;;;0.60;0.60;;;;;;;6.17;93.09;97817.50;4804669;29;20062;-84
2022/04/10 04:36:44;;;;;;;0.50;0.50;;;;;;;6.18;92.94;97827.97;4807262;29;20088;-81
2022/04/10 04:39:31;;;;;;;0.60;0.60;;;;;;;6.19;93.17;97826.09;4812737;29;20066;-82
2022/04/10 04:42:17;;;;;;;0.50;0.50;;;;;;;6.23;93.14;97833.41;4806295;29;20061;-83
2022/04/10 04:45:04;;;;;;;0.50;0.50;;;;;;;6.29;93.15;97834.28;4803716;29;20184;-82
2022/04/10 04:47:50;;;;;;;0.50;0.50;;;;;;;6.31;92.71;97832.19;4803434;29;20102;-85
2022/04/10 04:50:36;;;;;;;0.50;0.50;;;;;;;6.36;92.56;97842.16;4803567;29;20437;-82
2022/04/10 04:53:22;;;;;;;0.50;0.50;;;;;;;6.38;92.45;97846.22;4803399;29;20545;-82
2022/04/10 04:56:08;;;;;;;0.50;0.50;;;;;;;6.41;92.34;97853.78;4804140;29;20061;-84
2022/04/10 04:58:56;;;;;;;0.50;0.50;;;;;;;6.44;92.23;97858.63;4802547;29;20062;-83
2022/04/10 05:01:44;;;;;;;0.50;0.50;;;;;;;6.48;91.92;97858.94;4803259;29;20184;-83
2022/04/10 05:04:32;;;;;;;0.50;0.50;;;;;;;6.50;91.58;97863.00;4803576;29;20069;-84
2022/04/10 05:07:18;;;;;;;0.50;0.50;;;;;;;6.44;91.39;97866.66;4803202;29;20139;-84
2022/04/10 05:10:04;;;;;;;0.60;0.60;;;;;;;6.40;91.48;97870.88;4803547;29;20066;-84
2022/04/10 05:12:52;;;;;;;0.60;0.60;;;;;;;6.43;91.60;97873.09;4803726;29;20058;-83
2022/04/10 05:15:42;;;;;;;0.50;0.50;;;;;;;6.43;91.60;97875.78;4803329;29;20074;-84
2022/04/10 05:18:28;;;;;;;0.50;0.50;;;;;;;6.45;91.78;97873.66;4808729;29;20104;-83
2022/04/10 05:21:15;;;;;;;0.60;0.60;;;;;;;6.53;91.59;97876.97;4825300;29;20553;-82
2022/04/10 05:24:02;;;;;;;0.50;0.50;;;;;;;6.52;91.62;97889.56;4824038;29;20162;-84
2022/04/10 05:26:48;;;;;;;0.60;0.60;;;;;;;6.42;91.64;97889.41;4814534;29;20075;-84
2022/04/10 05:29:34;;;;;;;0.57;0.57;;;;;;;6.36;91.90;97887.72;4811210;29;20058;-85
2022/04/10 05:32:20;;;;;;;0.50;0.50;;;;;;;6.31;92.15;97890.31;4486198;29;10001687;-82
2022/04/10 05:35:06;;;;;;;0.60;0.60;;;;;;;6.33;92.55;97898.91;4810135;29;20574;-82
2022/04/10 05:37:55;;;;;;;0.60;0.60;;;;;;;6.25;92.72;97894.78;4812278;29;20062;-83
2022/04/10 05:40:41;;;;;;;0.60;0.60;;;;;;;6.22;93.06;97892.59;4814606;29;20069;-83
2022/04/10 05:43:29;;;;;;;0.60;0.60;;;;;;;6.26;93.36;97901.78;4818125;29;20544;-83
2022/04/10 05:46:15;;;;;;;0.50;0.50;;;;;;;6.32;93.68;97905.34;4819148;29;20115;-83
2022/04/10 05:49:06;;;;;;;0.60;0.60;;;;;;;6.40;93.72;97902.25;4808427;29;20106;-83
2022/04/10 05:51:53;;;;;;;0.60;0.60;;;;;;;6.38;93.58;97910.53;4801758;29;20431;-82
2022/04/10 05:54:39;;;;;;;0.50;0.50;;;;;;;6.41;93.52;97922.66;4821717;29;20057;-84
2022/04/10 05:57:26;;;;;;;0.52;0.52;;;;;;;6.31;93.64;97920.59;4818990;29;20123;-83
2022/04/10 06:00:15;;;;;;;0.60;0.60;;;;;;;6.28;93.93;97927.25;4818377;29;20141;-82
2022/04/10 06:03:07;;;;;;;0.60;0.60;;;;;;;6.25;94.00;97924.25;4816910;29;20070;-84
2022/04/10 06:05:56;;;;;;;0.50;0.50;;;;;;;6.23;94.47;97939.78;4811518;29;20057;-85
2022/04/10 06:08:55;;;;;;;0.60;0.60;;;;;;;6.18;94.43;97934.28;4822492;29;20062;-83
2022/04/10 06:11:41;;;;;;;0.60;0.60;;;;;;;6.14;94.74;97954.59;4821042;29;20061;-84
2022/04/10 06:14:27;;;;;;;0.50;0.50;;;;;;;6.10;95.10;97966.84;4813266;29;20079;-84
2022/04/10 06:16:57;;;;;;;0.50;0.50;;;;;;;6.11;95.32;97968.50;4813486;29;20122;-83
2022/04/10 06:19:27;;;;;;;0.60;0.60;;;;;;;6.11;95.59;97984.56;4817485;29;20515;-84
2022/04/10 06:21:55;;;;;;;0.60;0.60;;;;;;;6.11;95.83;97985.38;4819651;29;20119;-83
2022/04/10 06:24:22;;;;;;;0.57;0.57;;;;;;;6.12;96.14;97991.53;4822549;29;20074;-83
2022/04/10 06:26:50;;;;;;;0.60;0.60;;;;;;;6.13;96.25;97993.97;4831593;29;20058;-83
2022/04/10 06:29:20;;;;;;;0.60;0.60;;;;;;;6.15;96.34;97999.88;4812500;29;20220;-81
2022/04/10 06:31:54;;;;;;;0.50;0.50;;;;;;;6.18;96.30;98007.47;4820441;29;20503;-84
2022/04/10 06:34:25;;;;;;;0.60;0.60;;;;;;;6.17;96.37;97999.66;4821669;29;20058;-83
2022/04/10 06:36:53;;;;;;;0.50;0.50;;;;;;;6.14;96.09;98002.81;4788068;29;20054;-83
2022/04/10 06:39:21;;;;;;;0.60;0.60;;;;;;;6.07;96.35;98001.09;4807079;29;20530;-85
2022/04/10 06:41:52;;;;;;;0.60;0.60;;;;;;;6.06;96.61;97999.47;4812082;29;20081;-84
2022/04/10 06:44:41;;;;;;;0.60;0.60;;;;;;;6.07;96.70;98006.44;4827288;29;20051;-81
2022/04/10 06:47:18;;;;;;;0.60;0.60;;;;;;;6.13;96.96;97999.34;4819052;29;20578;-83
2022/04/10 06:49:46;;;;;;;0.60;0.60;;;;;;;6.17;96.96;98007.69;4812963;29;20517;-84
2022/04/10 06:52:13;;;;;;;0.60;0.60;;;;;;;6.19;96.71;98019.81;4813333;29;20078;-83
2022/04/10 06:54:41;;;;;;;0.60;0.60;;;;;;;6.10;96.06;98031.94;4819902;29;20523;-84
2022/04/10 06:57:14;;;;;;;0.60;0.60;;;;;;;5.92;95.88;98024.88;4829179;29;20086;-84
2022/04/10 06:59:41;;;;;;;0.60;0.60;;;;;;;5.81;95.81;98036.44;4828167;29;20066;-84
2022/04/10 07:02:12;;;;;;;0.60;0.60;;;;;;;5.70;95.45;98053.34;4814516;29;20454;-84
2022/04/10 07:04:39;;;;;;;0.60;0.60;;;;;;;5.50;94.86;98054.56;4812686;29;20111;-87
2022/04/10 07:07:08;;;;;;;0.50;0.50;;;;;;;5.25;94.05;98070.06;4803982;29;20108;-84
2022/04/10 07:09:36;;;;;;;0.60;0.60;;;;;;;4.97;93.14;98087.59;4812132;29;20115;-82
2022/04/10 07:12:03;;;;;;;0.70;0.70;;;;;;;4.81;92.51;98077.56;4813930;29;20081;-86
2022/04/10 07:14:36;;;;;;;0.60;0.60;;;;;;;4.71;91.93;98094.97;4822387;29;20156;-84
2022/04/10 07:17:05;;;;;;;0.60;0.60;;;;;;;4.55;91.54;98095.63;4827770;29;20403;-84
2022/04/10 07:19:32;;;;;;;0.65;0.65;;;;;;;4.54;91.34;98096.66;4817271;29;20532;-82
2022/04/10 07:24:46;;;;;;;0.60;0.60;;;;;;;4.48;89.79;98117.09;4822753;29;20065;-82
2022/04/10 07:27:13;;;;;;;0.70;0.70;;;;;;;4.49;89.25;98117.91;4821158;29;20465;-82
2022/04/10 07:29:54;;;;;;;0.70;0.70;;;;;;;4.55;88.65;98115.13;4816582;29;20059;-83
2022/04/10 07:32:29;;;;;;;0.80;0.80;;;;;;;4.54;87.52;98115.38;4829689;29;20511;-82
2022/04/10 07:35:03;;;;;;;0.70;0.70;;;;;;;4.72;87.88;98120.66;4822151;29;20137;-82
2022/04/10 07:37:51;;;;;;;0.73;0.73;;;;;;;4.96;87.38;98131.41;4821366;29;20062;-85
2022/04/10 07:40:22;;;;;;;0.70;0.70;;;;;;;5.08;86.55;98136.78;4822579;29;20063;-83
2022/04/10 07:42:52;;;;;;;0.70;0.70;;;;;;;5.12;85.95;98144.13;4815032;29;20063;-83
2022/04/10 07:48:35;;;;;;;0.70;0.70;;;;;;;5.14;84.28;98152.72;4809136;29;20157;-82
2022/04/10 07:51:04;;;;;;;0.60;0.60;;;;;;;5.29;84.21;98159.47;4820948;29;20078;-84
2022/04/10 07:54:06;;;;;;;0.70;0.70;;;;;;;5.51;84.26;98171.25;4812116;29;20055;-86
2022/04/10 07:56:35;;;;;;;0.60;0.60;;;;;;;5.48;83.06;98189.66;4818833;29;20054;-87
2022/04/10 07:59:05;;;;;;;0.70;0.70;;;;;;;5.48;82.26;98178.94;4818165;29;20530;-88
2022/04/10 08:01:37;;;;;;;0.70;0.70;;;;;;;5.41;81.48;98184.41;4802951;29;20058;-87
2022/04/10 08:04:08;;;;;;;0.70;0.70;;;;;;;5.53;81.35;98190.56;4824939;29;20046;-86
2022/04/10 08:06:52;;;;;;;0.65;0.65;;;;;;;5.77;80.85;98191.41;4825158;29;20532;-84
2022/04/10 08:09:20;;;;;;;0.70;0.70;;;;;;;5.93;80.06;98205.16;4807394;29;20054;-85
2022/04/10 08:11:47;;;;;;;0.60;0.60;;;;;;;5.74;78.95;98212.47;4809063;29;20178;-85
2022/04/10 08:14:14;;;;;;;0.70;0.70;;;;;;;5.58;79.35;98220.13;4812109;29;20074;-82
2022/04/10 08:16:41;;;;;;;0.73;0.73;;;;;;;5.72;79.62;98206.53;4803195;29;20042;-85
2022/04/10 08:19:08;;;;;;;0.60;0.60;;;;;;;5.88;79.71;98195.13;4818286;29;20473;-86
2022/04/10 08:21:35;;;;;;;0.60;0.60;;;;;;;6.07;79.38;98196.63;4805339;29;20552;-84
2022/04/10 08:24:03;;;;;;;0.63;0.63;;;;;;;6.18;78.88;98224.50;4804529;29;20057;-86
2022/04/10 08:26:30;;;;;;;0.60;0.60;;;;;;;6.18;79.25;98239.72;4806200;29;20063;-85
2022/04/10 08:29:00;;;;;;;0.63;0.63;;;;;;;6.12;79.49;98249.53;4809521;29;20511;-85
2022/04/10 08:31:28;;;;;;;0.60;0.60;;;;;;;6.06;80.34;98261.19;4805611;29;20093;-86
2022/04/10 08:33:58;;;;;;;0.60;0.60;;;;;;;5.96;80.25;98269.78;4803807;29;20070;-86
2022/04/10 08:36:25;;;;;;;0.70;0.70;;;;;;;5.70;79.74;98272.88;4818622;29;20059;-85
2022/04/10 08:38:53;;;;;;;0.70;0.70;;;;;;;5.57;79.46;98279.25;4805159;29;20499;-86
2022/04/10 08:41:21;;;;;;;0.70;0.70;;;;;;;5.75;79.27;98289.09;4804759;29;20491;-85
2022/04/10 08:43:49;;;;;;;0.60;0.60;;;;;;;6.18;77.85;98287.94;4788943;29;20074;-84
2022/04/10 08:46:16;;;;;;;0.70;0.70;;;;;;;6.49;76.33;98292.94;4804021;29;20063;-83
2022/04/10 08:48:44;;;;;;;0.70;0.70;;;;;;;6.54;74.77;98300.28;4819111;29;20575;-85
2022/04/10 08:51:11;;;;;;;0.60;0.60;;;;;;;6.67;74.99;98307.25;4805846;29;20137;-85
2022/04/10 08:53:38;;;;;;;0.60;0.60;;;;;;;6.88;74.97;98303.13;4805363;29;20085;-85
2022/04/10 08:56:08;;;;;;;0.60;0.60;;;;;;;6.90;74.64;98301.03;4804211;29;20065;-85
2022/04/10 08:58:35;;;;;;;0.70;0.70;;;;;;;6.73;74.57;98306.31;4819322;29;20269;-85
2022/04/10 09:01:03;;;;;;;0.70;0.70;;;;;;;6.54;74.67;98302.97;4805022;29;20082;-85
2022/04/10 09:03:31;;;;;;;0.60;0.60;;;;;;;6.38;74.98;98312.56;4804687;29;20061;-83
2022/04/10 09:06:06;;;;;;;0.60;0.60;;;;;;;6.19;74.88;98313.72;4804978;29;20047;-85
2022/04/10 09:08:34;;;;;;;0.70;0.70;;;;;;;6.28;75.48;98329.22;4822465;29;20042;-86
2022/04/10 09:11:03;;;;;;;0.63;0.63;;;;;;;6.27;74.56;98324.06;4823522;29;20059;-85
2022/04/10 09:13:32;;;;;;;0.60;0.60;;;;;;;6.21;74.02;98333.88;4808885;29;20054;-86
2022/04/10 09:16:23;;;;;;;0.60;0.60;;;;;;;6.11;74.37;98341.66;4804991;29;20050;-83
2022/04/10 09:19:01;;;;;;;0.60;0.60;;;;;;;6.06;74.10;98347.72;4803665;29;20464;-84
2022/04/10 09:21:30;;;;;;;0.70;0.70;;;;;;;6.08;73.90;98345.63;4804496;29;20055;-85
2022/04/10 09:23:59;;;;;;;0.70;0.70;;;;;;;6.31;74.21;98352.06;4804022;29;20146;-85
2022/04/10 09:26:45;;;;;;;0.70;0.70;;;;;;;6.57;73.34;98352.63;4804593;29;20058;-86
2022/04/10 09:29:22;;;;;;;0.60;0.60;;;;;;;6.60;72.60;98355.63;4804719;29;20587;-85
2022/04/10 09:31:51;;;;;;;0.60;0.60;;;;;;;6.54;71.76;98358.47;4811242;29;20054;-83
2022/04/10 09:34:22;;;;;;;0.60;0.60;;;;;;;6.63;72.01;98373.13;4805941;29;20073;-87
2022/04/10 09:37:14;;;;;;;0.60;0.60;;;;;;;6.88;71.63;98367.50;4808164;29;20059;-83
2022/04/10 09:39:44;;;;;;;0.60;0.60;;;;;;;7.11;71.30;98367.44;4808493;29;20100;-85
2022/04/10 09:42:12;;;;;;;0.60;0.60;;;;;;;7.21;70.63;98369.50;4806819;29;20078;-84
2022/04/10 09:44:59;;;;;;;0.60;0.60;;;;;;;7.11;69.19;98372.00;4806588;29;20081;-85
2022/04/10 09:47:27;;;;;;;0.60;0.60;;;;;;;7.00;70.03;98367.50;4811132;29;20133;-85
2022/04/10 09:50:04;;;;;;;0.60;0.60;;;;;;;7.18;69.56;98379.94;4817097;29;20117;-85
2022/04/10 09:52:35;;;;;;;0.60;0.60;;;;;;;7.32;69.26;98378.59;4828497;29;20058;-85
2022/04/10 09:55:04;;;;;;;0.60;0.60;;;;;;;7.20;67.49;98384.00;4799595;29;20098;-84
2022/04/10 09:57:32;;;;;;;0.60;0.60;;;;;;;6.86;67.86;98385.69;4789419;29;20061;-85
2022/04/10 10:00:02;;;;;;;0.50;0.50;;;;;;;6.58;68.40;98392.59;4781773;29;20118;-85
2022/04/10 10:02:38;;;;;;;0.70;0.70;;;;;;;6.42;68.72;98398.66;4812688;29;20055;-84
2022/04/10 10:05:07;;;;;;;0.70;0.70;;;;;;;6.63;68.76;98397.25;4838890;29;20059;-85
2022/04/10 10:07:36;;;;;;;0.60;0.60;;;;;;;7.00;68.08;98397.81;4836084;29;20058;-84
2022/04/10 10:10:05;;;;;;;0.70;0.70;;;;;;;7.36;67.35;98403.91;4830982;29;20054;-86
2022/04/10 10:12:34;;;;;;;0.70;0.70;;;;;;;7.68;66.81;98400.75;4861426;29;20498;-86
2022/04/10 10:15:01;;;;;;;0.70;0.70;;;;;;;7.91;65.23;98414.06;4850028;29;20775;-87
2022/04/10 10:17:31;;;;;;;0.70;0.70;;;;;;;7.87;64.13;98404.06;4831982;29;20050;-89
2022/04/10 10:20:00;;;;;;;0.70;0.70;;;;;;;7.79;65.05;98408.75;4832078;29;20142;-85
2022/04/10 10:22:29;;;;;;;0.70;0.70;;;;;;;7.90;64.69;98411.63;4841145;29;20050;-86
2022/04/10 10:25:10;;;;;;;0.60;0.60;;;;;;;8.07;64.41;98417.84;4849800;29;20822;-86
2022/04/10 10:28:07;;;;;;;0.60;0.60;;;;;;;7.99;63.36;98407.50;4836745;29;20057;-86
2022/04/10 10:31:11;;;;;;;0.60;0.60;;;;;;;7.83;64.02;98417.16;4849816;29;20057;-87
2022/04/10 10:33:51;;;;;;;0.70;0.70;;;;;;;7.88;63.94;98422.63;4837522;29;20506;-87
2022/04/10 10:36:24;;;;;;;0.70;0.70;;;;;;;8.07;63.44;98435.84;4847209;29;20110;-85
2022/04/10 10:38:54;;;;;;;0.70;0.70;;;;;;;7.90;63.16;98442.00;4828438;29;20497;-86
2022/04/10 10:41:22;;;;;;;0.60;0.60;;;;;;;7.89;64.05;98439.56;4823198;29;20094;-86
2022/04/10 10:43:50;;;;;;;0.70;0.70;;;;;;;8.06;63.15;98450.34;4812759;29;20086;-83
2022/04/10 10:46:26;;;;;;;0.60;0.60;;;;;;;8.41;62.86;98452.88;4817131;29;20182;-87
2022/04/10 10:49:14;;;;;;;0.60;0.60;;;;;;;8.61;61.98;98458.56;4814532;29;20054;-85
2022/04/10 10:51:52;;;;;;;0.68;0.68;;;;;;;8.52;61.27;98462.72;4815017;29;20107;-86
2022/04/10 10:54:30;;;;;;;0.60;0.60;;;;;;;8.38;60.61;98464.06;4818624;29;20093;-88
2022/04/10 10:56:58;;;;;;;0.60;0.60;;;;;;;8.33;60.73;98472.03;4818299;29;20082;-87
2022/04/10 10:59:39;;;;;;;0.60;0.60;;;;;;;8.28;61.00;98469.25;4829167;29;20059;-85
2022/04/10 11:02:10;;;;;;;0.60;0.60;;;;;;;8.30;60.58;98481.41;4822269;29;20081;-87
2022/04/10 11:04:58;;;;;;;0.60;0.60;;;;;;;8.24;61.44;98477.00;4828587;29;20054;-87
2022/04/10 11:07:27;;;;;;;0.60;0.60;;;;;;;8.21;61.84;98478.31;4816572;29;20055;-87
2022/04/10 11:09:58;;;;;;;0.60;0.60;;;;;;;8.14;61.70;98480.31;4813729;29;20150;-88
2022/04/10 11:12:33;;;;;;;0.50;0.50;;;;;;;8.07;62.12;98474.28;4830054;29;20145;-87
2022/04/10 11:15:12;;;;;;;0.50;0.50;;;;;;;8.07;62.20;98473.47;4817573;29;20058;-86
2022/04/10 11:17:40;;;;;;;0.60;0.60;;;;;;;8.04;62.33;98477.44;4810594;29;20574;-88
2022/04/10 11:20:09;;;;;;;0.60;0.60;;;;;;;8.03;61.77;98490.09;4823373;29;20051;-87
2022/04/10 11:22:40;;;;;;;0.60;0.60;;;;;;;7.95;61.98;98484.25;4821862;29;20086;-87
2022/04/10 11:25:09;;;;;;;0.60;0.60;;;;;;;7.96;61.96;98475.16;4829210;29;20119;-87
2022/04/10 11:27:55;;;;;;;0.50;0.50;;;;;;;7.86;62.59;98480.34;4819972;29;20135;-87
2022/04/10 11:30:41;;;;;;;0.60;0.60;;;;;;;7.89;62.31;98487.91;4812268;29;20081;-87
2022/04/10 11:33:10;;;;;;;0.60;0.60;;;;;;;7.86;62.20;98473.09;4820864;29;20504;-84
2022/04/10 11:35:44;;;;;;;0.60;0.60;;;;;;;7.99;62.01;98472.78;4807067;29;20076;-86
2022/04/10 11:38:17;;;;;;;0.60;0.60;;;;;;;8.14;61.49;98474.13;4799344;29;20143;-86
2022/04/10 11:40:50;;;;;;;0.60;0.60;;;;;;;8.24;61.23;98477.00;4792687;29;20103;-87
2022/04/10 11:43:19;;;;;;;0.50;0.50;;;;;;;8.29;60.91;98481.66;4824094;29;20054;-86
2022/04/10 11:45:50;;;;;;;0.50;0.50;;;;;;;8.10;59.26;98478.34;4826522;29;20077;-85
2022/04/10 11:48:17;;;;;;;0.50;0.50;;;;;;;7.66;61.57;98495.00;4827442;29;20707;-87
2022/04/10 11:50:45;;;;;;;0.55;0.55;;;;;;;7.56;62.27;98492.09;4825217;29;20055;-87
2022/04/10 11:53:17;;;;;;;0.50;0.50;;;;;;;7.52;62.06;98488.25;4823958;29;20058;-86
2022/04/10 11:55:48;;;;;;;0.50;0.50;;;;;;;7.62;62.53;98501.06;4813744;29;20077;-87
2022/04/10 11:58:17;;;;;;;0.50;0.50;;;;;;;7.59;62.20;98500.50;4819119;29;20122;-87
2022/04/10 12:00:51;;;;;;;0.50;0.50;;;;;;;7.53;61.76;98512.19;4811695;29;20055;-85
2022/04/10 12:03:21;;;;;;;0.50;0.50;;;;;;;7.45;60.98;98512.56;4813460;29;20062;-86
2022/04/10 12:05:49;;;;;;;0.60;0.60;;;;;;;7.40;60.13;98511.66;4814688;29;20529;-85
2022/04/10 12:08:16;;;;;;;0.50;0.50;;;;;;;7.26;60.17;98514.56;4816808;29;20070;-83
2022/04/10 12:10:54;;;;;;;0.50;0.50;;;;;;;7.26;60.50;98517.25;4807032;29;20054;-84
2022/04/10 12:13:31;;;;;;;0.50;0.50;;;;;;;7.39;60.58;98516.16;4807873;29;20055;-85
2022/04/10 12:16:08;;;;;;;0.60;0.60;;;;;;;7.58;60.26;98516.84;4810181;29;20054;-88
2022/04/10 12:18:53;;;;;;;0.60;0.60;;;;;;;7.55;60.61;98515.47;4808946;29;20170;-86
2022/04/10 12:21:22;;;;;;;0.60;0.60;;;;;;;7.45;59.99;98511.75;4805684;29;20055;-82
2022/04/10 12:24:03;;;;;;;0.60;0.60;;;;;;;7.35;60.23;98518.53;4804466;29;20144;-85